sensor_id;sensor_type;location;lat;lon;timestamp;P1;durP1;ratioP1;P2;durP2;ratioP2
60016;SDS011;45869;52.698;6.210;2023-08-12T00:00:28;6.57;;;4.53;;
60016;SDS011;45869;52.698;6.210;2023-08-12T00:02:54;6.22;;;4.38;;
60016;SDS011;45869;52.698;6.210;2023-08-12T00:05:21;6.80;;;4.20;;
60016;SDS011;45869;52.698;6.210;2023-08-12T00:07:47;6.47;;;4.40;;
60016;SDS011;45869;52.698;6.210;2023-08-12T00:10:13;9.30;;;5.95;;
60016;SDS011;45869;52.698;6.210;2023-08-12T00:12:39;10.82;;;6.07;;
60016;SDS011;45869;52.698;6.210;2023-08-12T00:15:06;8.77;;;5.20;;
60016;SDS011;45869;52.698;6.210;2023-08-12T00:17:33;8.80;;;5.90;;
60016;SDS011;45869;52.698;6.210;2023-08-12T00:19:59;6.55;;;4.78;;
60016;SDS011;45869;52.698;6.210;2023-08-12T00:22:26;7.55;;;5.35;;
60016;SDS011;45869;52.698;6.210;2023-08-12T00:24:52;6.78;;;5.15;;
60016;SDS011;45869;52.698;6.210;2023-08-12T00:27:18;8.02;;;5.70;;
60016;SDS011;45869;52.698;6.210;2023-08-12T00:29:44;8.70;;;5.97;;
60016;SDS011;45869;52.698;6.210;2023-08-12T00:32:10;8.80;;;5.60;;
60016;SDS011;45869;52.698;6.210;2023-08-12T00:34:36;9.05;;;5.47;;
60016;SDS011;45869;52.698;6.210;2023-08-12T00:37:02;6.40;;;4.75;;
60016;SDS011;45869;52.698;6.210;2023-08-12T00:39:28;7.70;;;5.07;;
60016;SDS011;45869;52.698;6.210;2023-08-12T00:41:54;8.40;;;5.00;;
60016;SDS011;45869;52.698;6.210;2023-08-12T00:44:20;7.38;;;5.13;;
60016;SDS011;45869;52.698;6.210;2023-08-12T00:46:46;8.63;;;6.63;;
60016;SDS011;45869;52.698;6.210;2023-08-12T00:49:13;6.20;;;4.50;;
60016;SDS011;45869;52.698;6.210;2023-08-12T00:51:39;6.97;;;5.47;;
60016;SDS011;45869;52.698;6.210;2023-08-12T00:54:07;7.35;;;5.22;;
60016;SDS011;45869;52.698;6.210;2023-08-12T00:56:34;8.02;;;4.88;;
60016;SDS011;45869;52.698;6.210;2023-08-12T00:59:01;11.23;;;6.20;;
60016;SDS011;45869;52.698;6.210;2023-08-12T01:01:27;10.57;;;6.30;;
60016;SDS011;45869;52.698;6.210;2023-08-12T01:03:53;10.23;;;5.43;;
60016;SDS011;45869;52.698;6.210;2023-08-12T01:06:19;9.68;;;5.47;;
60016;SDS011;45869;52.698;6.210;2023-08-12T01:08:45;9.20;;;5.25;;
60016;SDS011;45869;52.698;6.210;2023-08-12T01:11:16;8.38;;;5.40;;
60016;SDS011;45869;52.698;6.210;2023-08-12T01:16:12;8.02;;;5.15;;
60016;SDS011;45869;52.698;6.210;2023-08-12T01:18:39;8.60;;;5.10;;
60016;SDS011;45869;52.698;6.210;2023-08-12T01:21:06;8.43;;;5.28;;
60016;SDS011;45869;52.698;6.210;2023-08-12T01:23:33;7.82;;;5.00;;
60016;SDS011;45869;52.698;6.210;2023-08-12T01:25:59;7.63;;;4.97;;
60016;SDS011;45869;52.698;6.210;2023-08-12T01:28:25;7.88;;;5.30;;
60016;SDS011;45869;52.698;6.210;2023-08-12T01:30:53;8.65;;;6.10;;
60016;SDS011;45869;52.698;6.210;2023-08-12T01:33:31;6.90;;;4.72;;
60016;SDS011;45869;52.698;6.210;2023-08-12T01:36:04;6.43;;;4.93;;
60016;SDS011;45869;52.698;6.210;2023-08-12T01:38:34;8.82;;;5.50;;
60016;SDS011;45869;52.698;6.210;2023-08-12T01:41:01;8.63;;;5.65;;
60016;SDS011;45869;52.698;6.210;2023-08-12T01:43:27;7.45;;;5.60;;
60016;SDS011;45869;52.698;6.210;2023-08-12T01:45:54;6.47;;;5.15;;
60016;SDS011;45869;52.698;6.210;2023-08-12T01:48:20;8.02;;;5.28;;
60016;SDS011;45869;52.698;6.210;2023-08-12T01:50:48;8.75;;;5.90;;
60016;SDS011;45869;52.698;6.210;2023-08-12T01:53:14;8.05;;;5.30;;
60016;SDS011;45869;52.698;6.210;2023-08-12T01:55:43;8.52;;;5.75;;
60016;SDS011;45869;52.698;6.210;2023-08-12T01:58:10;9.02;;;5.57;;
60016;SDS011;45869;52.698;6.210;2023-08-12T02:00:36;8.98;;;5.57;;
60016;SDS011;45869;52.698;6.210;2023-08-12T02:03:02;7.10;;;5.72;;
60016;SDS011;45869;52.698;6.210;2023-08-12T02:05:28;8.40;;;5.68;;
60016;SDS011;45869;52.698;6.210;2023-08-12T02:07:54;7.30;;;5.30;;
60016;SDS011;45869;52.698;6.210;2023-08-12T02:10:20;7.63;;;5.60;;
60016;SDS011;45869;52.698;6.210;2023-08-12T02:12:46;10.88;;;5.72;;
60016;SDS011;45869;52.698;6.210;2023-08-12T02:15:12;8.30;;;5.88;;
60016;SDS011;45869;52.698;6.210;2023-08-12T02:17:38;7.35;;;6.00;;
60016;SDS011;45869;52.698;6.210;2023-08-12T02:20:04;8.23;;;5.63;;
60016;SDS011;45869;52.698;6.210;2023-08-12T02:22:30;8.57;;;5.40;;
60016;SDS011;45869;52.698;6.210;2023-08-12T02:24:56;9.00;;;6.20;;
60016;SDS011;45869;52.698;6.210;2023-08-12T02:27:23;8.60;;;5.90;;
60016;SDS011;45869;52.698;6.210;2023-08-12T02:29:49;10.00;;;6.80;;
60016;SDS011;45869;52.698;6.210;2023-08-12T02:32:15;11.00;;;8.10;;
60016;SDS011;45869;52.698;6.210;2023-08-12T02:34:41;11.40;;;7.93;;
60016;SDS011;45869;52.698;6.210;2023-08-12T02:37:07;10.50;;;6.82;;
60016;SDS011;45869;52.698;6.210;2023-08-12T02:39:33;8.27;;;5.60;;
60016;SDS011;45869;52.698;6.210;2023-08-12T02:41:59;8.20;;;5.80;;
60016;SDS011;45869;52.698;6.210;2023-08-12T02:44:25;11.68;;;7.45;;
60016;SDS011;45869;52.698;6.210;2023-08-12T02:46:51;12.00;;;7.28;;
60016;SDS011;45869;52.698;6.210;2023-08-12T02:49:17;7.78;;;6.10;;
60016;SDS011;45869;52.698;6.210;2023-08-12T02:51:43;11.07;;;7.20;;
60016;SDS011;45869;52.698;6.210;2023-08-12T02:54:09;12.00;;;7.07;;
60016;SDS011;45869;52.698;6.210;2023-08-12T02:56:35;9.73;;;6.57;;
60016;SDS011;45869;52.698;6.210;2023-08-12T02:59:01;9.32;;;5.82;;
60016;SDS011;45869;52.698;6.210;2023-08-12T03:01:27;9.38;;;6.15;;
60016;SDS011;45869;52.698;6.210;2023-08-12T03:03:53;10.60;;;6.63;;
60016;SDS011;45869;52.698;6.210;2023-08-12T03:06:20;7.88;;;5.68;;
60016;SDS011;45869;52.698;6.210;2023-08-12T03:08:46;11.70;;;6.20;;
60016;SDS011;45869;52.698;6.210;2023-08-12T03:11:12;9.13;;;5.75;;
60016;SDS011;45869;52.698;6.210;2023-08-12T03:13:38;8.65;;;6.25;;
60016;SDS011;45869;52.698;6.210;2023-08-12T03:16:04;8.93;;;6.50;;
60016;SDS011;45869;52.698;6.210;2023-08-12T03:18:33;9.68;;;6.38;;
60016;SDS011;45869;52.698;6.210;2023-08-12T03:20:59;10.95;;;6.70;;
60016;SDS011;45869;52.698;6.210;2023-08-12T03:23:25;8.98;;;5.65;;
60016;SDS011;45869;52.698;6.210;2023-08-12T03:25:51;12.07;;;6.93;;
60016;SDS011;45869;52.698;6.210;2023-08-12T03:28:17;9.38;;;6.18;;
60016;SDS011;45869;52.698;6.210;2023-08-12T03:30:49;9.27;;;6.78;;
60016;SDS011;45869;52.698;6.210;2023-08-12T03:33:16;13.98;;;7.65;;
60016;SDS011;45869;52.698;6.210;2023-08-12T03:35:44;11.35;;;7.00;;
60016;SDS011;45869;52.698;6.210;2023-08-12T03:38:10;7.78;;;5.78;;
60016;SDS011;45869;52.698;6.210;2023-08-12T03:40:40;10.32;;;7.00;;
60016;SDS011;45869;52.698;6.210;2023-08-12T03:43:06;9.00;;;6.43;;
60016;SDS011;45869;52.698;6.210;2023-08-12T03:45:32;12.13;;;7.78;;
60016;SDS011;45869;52.698;6.210;2023-08-12T03:47:58;9.30;;;5.95;;
60016;SDS011;45869;52.698;6.210;2023-08-12T03:50:24;8.48;;;5.97;;
60016;SDS011;45869;52.698;6.210;2023-08-12T03:52:50;12.27;;;7.80;;
60016;SDS011;45869;52.698;6.210;2023-08-12T03:55:16;9.98;;;6.70;;
60016;SDS011;45869;52.698;6.210;2023-08-12T03:57:42;9.50;;;6.55;;
60016;SDS011;45869;52.698;6.210;2023-08-12T04:00:09;13.77;;;8.80;;
60016;SDS011;45869;52.698;6.210;2023-08-12T04:02:36;12.05;;;7.28;;
60016;SDS011;45869;52.698;6.210;2023-08-12T04:05:02;9.85;;;6.90;;
60016;SDS011;45869;52.698;6.210;2023-08-12T04:07:28;10.75;;;7.45;;
60016;SDS011;45869;52.698;6.210;2023-08-12T04:09:54;12.75;;;8.88;;
60016;SDS011;45869;52.698;6.210;2023-08-12T04:12:20;11.40;;;7.28;;
60016;SDS011;45869;52.698;6.210;2023-08-12T04:14:46;12.40;;;7.72;;
60016;SDS011;45869;52.698;6.210;2023-08-12T04:17:13;10.27;;;7.38;;
60016;SDS011;45869;52.698;6.210;2023-08-12T04:19:39;13.77;;;8.18;;
60016;SDS011;45869;52.698;6.210;2023-08-12T04:22:04;12.23;;;8.02;;
60016;SDS011;45869;52.698;6.210;2023-08-12T04:24:30;10.88;;;7.40;;
60016;SDS011;45869;52.698;6.210;2023-08-12T04:26:57;13.63;;;7.95;;
60016;SDS011;45869;52.698;6.210;2023-08-12T04:29:23;12.60;;;8.35;;
60016;SDS011;45869;52.698;6.210;2023-08-12T04:31:49;13.90;;;8.77;;
60016;SDS011;45869;52.698;6.210;2023-08-12T04:34:15;14.77;;;7.88;;
60016;SDS011;45869;52.698;6.210;2023-08-12T04:36:41;13.52;;;8.55;;
60016;SDS011;45869;52.698;6.210;2023-08-12T04:39:07;13.63;;;8.07;;
60016;SDS011;45869;52.698;6.210;2023-08-12T04:41:33;12.25;;;8.85;;
60016;SDS011;45869;52.698;6.210;2023-08-12T04:43:59;11.52;;;8.90;;
60016;SDS011;45869;52.698;6.210;2023-08-12T04:46:25;11.07;;;8.13;;
60016;SDS011;45869;52.698;6.210;2023-08-12T04:48:51;10.93;;;7.80;;
60016;SDS011;45869;52.698;6.210;2023-08-12T04:51:17;15.65;;;9.27;;
60016;SDS011;45869;52.698;6.210;2023-08-12T04:53:43;11.70;;;8.30;;
60016;SDS011;45869;52.698;6.210;2023-08-12T04:56:09;17.45;;;9.77;;
60016;SDS011;45869;52.698;6.210;2023-08-12T04:58:35;13.77;;;9.20;;
60016;SDS011;45869;52.698;6.210;2023-08-12T05:01:01;13.00;;;8.90;;
60016;SDS011;45869;52.698;6.210;2023-08-12T05:03:28;13.43;;;9.02;;
60016;SDS011;45869;52.698;6.210;2023-08-12T05:05:54;15.15;;;9.15;;
60016;SDS011;45869;52.698;6.210;2023-08-12T05:08:20;12.00;;;7.88;;
60016;SDS011;45869;52.698;6.210;2023-08-12T05:10:49;16.77;;;11.10;;
60016;SDS011;45869;52.698;6.210;2023-08-12T05:13:15;16.73;;;10.10;;
60016;SDS011;45869;52.698;6.210;2023-08-12T05:15:44;15.00;;;10.07;;
60016;SDS011;45869;52.698;6.210;2023-08-12T05:18:10;20.17;;;12.13;;
60016;SDS011;45869;52.698;6.210;2023-08-12T05:20:36;20.40;;;12.40;;
60016;SDS011;45869;52.698;6.210;2023-08-12T05:23:02;17.55;;;11.23;;
60016;SDS011;45869;52.698;6.210;2023-08-12T05:25:28;21.33;;;12.25;;
60016;SDS011;45869;52.698;6.210;2023-08-12T05:27:54;14.38;;;10.85;;
60016;SDS011;45869;52.698;6.210;2023-08-12T05:30:20;17.27;;;10.82;;
60016;SDS011;45869;52.698;6.210;2023-08-12T05:32:46;14.02;;;10.45;;
60016;SDS011;45869;52.698;6.210;2023-08-12T05:35:12;19.25;;;11.90;;
60016;SDS011;45869;52.698;6.210;2023-08-12T05:37:38;16.60;;;11.52;;
60016;SDS011;45869;52.698;6.210;2023-08-12T05:40:04;17.83;;;12.65;;
60016;SDS011;45869;52.698;6.210;2023-08-12T05:42:33;22.90;;;14.02;;
60016;SDS011;45869;52.698;6.210;2023-08-12T05:44:59;19.15;;;12.77;;
60016;SDS011;45869;52.698;6.210;2023-08-12T05:47:25;17.58;;;13.48;;
60016;SDS011;45869;52.698;6.210;2023-08-12T05:49:51;17.92;;;12.07;;
60016;SDS011;45869;52.698;6.210;2023-08-12T05:52:17;18.30;;;11.88;;
60016;SDS011;45869;52.698;6.210;2023-08-12T05:54:43;19.33;;;13.15;;
60016;SDS011;45869;52.698;6.210;2023-08-12T05:57:09;18.75;;;13.40;;
60016;SDS011;45869;52.698;6.210;2023-08-12T05:59:35;18.30;;;13.27;;
60016;SDS011;45869;52.698;6.210;2023-08-12T06:02:01;21.48;;;13.68;;
60016;SDS011;45869;52.698;6.210;2023-08-12T06:04:28;18.27;;;14.43;;
60016;SDS011;45869;52.698;6.210;2023-08-12T06:06:54;17.10;;;13.55;;
60016;SDS011;45869;52.698;6.210;2023-08-12T06:09:21;19.73;;;14.05;;
60016;SDS011;45869;52.698;6.210;2023-08-12T06:11:47;18.20;;;13.18;;
60016;SDS011;45869;52.698;6.210;2023-08-12T06:14:13;15.90;;;12.32;;
60016;SDS011;45869;52.698;6.210;2023-08-12T06:16:39;23.15;;;16.08;;
60016;SDS011;45869;52.698;6.210;2023-08-12T06:19:05;20.88;;;14.93;;
60016;SDS011;45869;52.698;6.210;2023-08-12T06:21:31;21.40;;;15.32;;
60016;SDS011;45869;52.698;6.210;2023-08-12T06:23:57;20.25;;;14.35;;
60016;SDS011;45869;52.698;6.210;2023-08-12T06:26:23;20.17;;;13.77;;
60016;SDS011;45869;52.698;6.210;2023-08-12T06:28:49;18.33;;;14.25;;
60016;SDS011;45869;52.698;6.210;2023-08-12T06:31:15;17.85;;;13.27;;
60016;SDS011;45869;52.698;6.210;2023-08-12T06:33:41;18.77;;;14.13;;
60016;SDS011;45869;52.698;6.210;2023-08-12T06:36:07;15.88;;;12.55;;
60016;SDS011;45869;52.698;6.210;2023-08-12T06:38:33;17.23;;;12.73;;
60016;SDS011;45869;52.698;6.210;2023-08-12T06:40:59;21.17;;;14.75;;
60016;SDS011;45869;52.698;6.210;2023-08-12T06:43:25;21.40;;;15.63;;
60016;SDS011;45869;52.698;6.210;2023-08-12T06:45:51;20.63;;;14.23;;
60016;SDS011;45869;52.698;6.210;2023-08-12T06:48:17;17.33;;;13.38;;
60016;SDS011;45869;52.698;6.210;2023-08-12T06:50:43;17.65;;;13.40;;
60016;SDS011;45869;52.698;6.210;2023-08-12T06:53:10;21.15;;;14.65;;
60016;SDS011;45869;52.698;6.210;2023-08-12T06:55:36;19.35;;;14.43;;
60016;SDS011;45869;52.698;6.210;2023-08-12T06:58:02;18.17;;;13.30;;
60016;SDS011;45869;52.698;6.210;2023-08-12T07:00:28;17.63;;;12.95;;
60016;SDS011;45869;52.698;6.210;2023-08-12T07:02:54;20.83;;;15.07;;
60016;SDS011;45869;52.698;6.210;2023-08-12T07:05:20;20.42;;;15.88;;
60016;SDS011;45869;52.698;6.210;2023-08-12T07:07:46;20.50;;;14.30;;
60016;SDS011;45869;52.698;6.210;2023-08-12T07:10:12;18.08;;;13.75;;
60016;SDS011;45869;52.698;6.210;2023-08-12T07:12:38;17.27;;;13.07;;
60016;SDS011;45869;52.698;6.210;2023-08-12T07:15:05;18.30;;;13.65;;
60016;SDS011;45869;52.698;6.210;2023-08-12T07:17:31;21.60;;;15.85;;
60016;SDS011;45869;52.698;6.210;2023-08-12T07:19:57;18.20;;;14.10;;
60016;SDS011;45869;52.698;6.210;2023-08-12T07:22:23;20.63;;;14.85;;
60016;SDS011;45869;52.698;6.210;2023-08-12T07:24:49;17.27;;;13.68;;
60016;SDS011;45869;52.698;6.210;2023-08-12T07:27:17;18.48;;;13.18;;
60016;SDS011;45869;52.698;6.210;2023-08-12T07:29:44;20.95;;;14.25;;
60016;SDS011;45869;52.698;6.210;2023-08-12T07:32:11;18.05;;;13.55;;
60016;SDS011;45869;52.698;6.210;2023-08-12T07:34:37;18.40;;;15.05;;
60016;SDS011;45869;52.698;6.210;2023-08-12T07:37:03;19.98;;;13.55;;
60016;SDS011;45869;52.698;6.210;2023-08-12T07:39:29;18.38;;;13.90;;
60016;SDS011;45869;52.698;6.210;2023-08-12T07:41:55;22.15;;;14.65;;
60016;SDS011;45869;52.698;6.210;2023-08-12T07:44:21;20.15;;;14.65;;
60016;SDS011;45869;52.698;6.210;2023-08-12T07:46:48;20.27;;;14.20;;
60016;SDS011;45869;52.698;6.210;2023-08-12T07:49:15;19.77;;;13.05;;
60016;SDS011;45869;52.698;6.210;2023-08-12T07:51:41;19.63;;;13.63;;
60016;SDS011;45869;52.698;6.210;2023-08-12T07:54:07;15.85;;;11.68;;
60016;SDS011;45869;52.698;6.210;2023-08-12T07:56:33;19.33;;;14.25;;
60016;SDS011;45869;52.698;6.210;2023-08-12T07:58:59;14.65;;;11.70;;
60016;SDS011;45869;52.698;6.210;2023-08-12T08:01:25;16.38;;;12.55;;
60016;SDS011;45869;52.698;6.210;2023-08-12T08:03:51;16.38;;;12.88;;
60016;SDS011;45869;52.698;6.210;2023-08-12T08:06:17;14.98;;;11.40;;
60016;SDS011;45869;52.698;6.210;2023-08-12T08:08:43;14.48;;;11.45;;
60016;SDS011;45869;52.698;6.210;2023-08-12T08:11:12;13.15;;;10.40;;
60016;SDS011;45869;52.698;6.210;2023-08-12T08:13:38;14.60;;;9.55;;
60016;SDS011;45869;52.698;6.210;2023-08-12T08:16:04;13.77;;;9.10;;
60016;SDS011;45869;52.698;6.210;2023-08-12T08:18:30;10.82;;;7.90;;
60016;SDS011;45869;52.698;6.210;2023-08-12T08:20:57;10.68;;;6.75;;
60016;SDS011;45869;52.698;6.210;2023-08-12T08:23:23;9.93;;;6.03;;
60016;SDS011;45869;52.698;6.210;2023-08-12T08:25:49;8.30;;;5.57;;
60016;SDS011;45869;52.698;6.210;2023-08-12T08:28:15;6.53;;;4.53;;
60016;SDS011;45869;52.698;6.210;2023-08-12T08:30:41;6.43;;;4.35;;
60016;SDS011;45869;52.698;6.210;2023-08-12T08:33:07;6.97;;;4.28;;
60016;SDS011;45869;52.698;6.210;2023-08-12T08:35:34;7.20;;;4.60;;
60016;SDS011;45869;52.698;6.210;2023-08-12T08:38:00;6.28;;;4.72;;
60016;SDS011;45869;52.698;6.210;2023-08-12T08:40:26;8.25;;;3.92;;
60016;SDS011;45869;52.698;6.210;2023-08-12T08:42:52;7.47;;;3.90;;
60016;SDS011;45869;52.698;6.210;2023-08-12T08:45:19;6.32;;;3.42;;
60016;SDS011;45869;52.698;6.210;2023-08-12T08:47:46;6.90;;;3.60;;
60016;SDS011;45869;52.698;6.210;2023-08-12T08:50:13;5.57;;;3.53;;
60016;SDS011;45869;52.698;6.210;2023-08-12T08:52:40;6.15;;;3.63;;
60016;SDS011;45869;52.698;6.210;2023-08-12T08:55:08;5.28;;;3.75;;
60016;SDS011;45869;52.698;6.210;2023-08-12T08:57:35;8.25;;;4.38;;
60016;SDS011;45869;52.698;6.210;2023-08-12T09:00:01;8.23;;;4.38;;
60016;SDS011;45869;52.698;6.210;2023-08-12T09:02:28;6.43;;;4.35;;
60016;SDS011;45869;52.698;6.210;2023-08-12T09:04:54;5.53;;;3.97;;
60016;SDS011;45869;52.698;6.210;2023-08-12T09:07:20;4.20;;;3.40;;
60016;SDS011;45869;52.698;6.210;2023-08-12T09:09:47;6.10;;;4.13;;
60016;SDS011;45869;52.698;6.210;2023-08-12T09:12:17;6.97;;;4.03;;
60016;SDS011;45869;52.698;6.210;2023-08-12T09:14:44;5.35;;;3.90;;
60016;SDS011;45869;52.698;6.210;2023-08-12T09:17:10;5.40;;;2.50;;
60016;SDS011;45869;52.698;6.210;2023-08-12T09:19:36;4.07;;;2.53;;
60016;SDS011;45869;52.698;6.210;2023-08-12T09:22:03;2.90;;;2.00;;
60016;SDS011;45869;52.698;6.210;2023-08-12T09:24:30;4.55;;;1.85;;
60016;SDS011;45869;52.698;6.210;2023-08-12T09:26:56;4.57;;;2.10;;
60016;SDS011;45869;52.698;6.210;2023-08-12T09:29:23;3.70;;;1.70;;
60016;SDS011;45869;52.698;6.210;2023-08-12T09:31:52;2.95;;;1.55;;
60016;SDS011;45869;52.698;6.210;2023-08-12T09:34:18;3.25;;;1.58;;
60016;SDS011;45869;52.698;6.210;2023-08-12T09:36:44;7.53;;;1.60;;
60016;SDS011;45869;52.698;6.210;2023-08-12T09:39:10;3.42;;;1.52;;
60016;SDS011;45869;52.698;6.210;2023-08-12T09:41:37;3.67;;;1.30;;
60016;SDS011;45869;52.698;6.210;2023-08-12T09:44:04;3.55;;;1.55;;
60016;SDS011;45869;52.698;6.210;2023-08-12T09:46:32;3.05;;;1.40;;
60016;SDS011;45869;52.698;6.210;2023-08-12T09:48:58;3.13;;;1.67;;
60016;SDS011;45869;52.698;6.210;2023-08-12T09:51:24;2.35;;;1.50;;
60016;SDS011;45869;52.698;6.210;2023-08-12T09:53:51;4.65;;;1.77;;
60016;SDS011;45869;52.698;6.210;2023-08-12T09:56:19;2.80;;;1.60;;
60016;SDS011;45869;52.698;6.210;2023-08-12T09:58:48;4.32;;;1.58;;
60016;SDS011;45869;52.698;6.210;2023-08-12T10:01:18;3.55;;;1.45;;
60016;SDS011;45869;52.698;6.210;2023-08-12T10:03:47;3.10;;;1.50;;
60016;SDS011;45869;52.698;6.210;2023-08-12T10:06:14;2.15;;;1.10;;
60016;SDS011;45869;52.698;6.210;2023-08-12T10:08:41;3.63;;;1.60;;
60016;SDS011;45869;52.698;6.210;2023-08-12T10:11:07;2.55;;;1.35;;
60016;SDS011;45869;52.698;6.210;2023-08-12T10:13:34;2.60;;;1.38;;
60016;SDS011;45869;52.698;6.210;2023-08-12T10:16:00;2.08;;;1.10;;
60016;SDS011;45869;52.698;6.210;2023-08-12T10:18:27;1.70;;;0.80;;
60016;SDS011;45869;52.698;6.210;2023-08-12T10:20:54;1.33;;;0.80;;
60016;SDS011;45869;52.698;6.210;2023-08-12T10:23:23;1.33;;;0.90;;
60016;SDS011;45869;52.698;6.210;2023-08-12T10:25:51;1.85;;;1.00;;
60016;SDS011;45869;52.698;6.210;2023-08-12T10:30:20;1.67;;;0.77;;
60016;SDS011;45869;52.698;6.210;2023-08-12T10:32:46;1.42;;;0.90;;
60016;SDS011;45869;52.698;6.210;2023-08-12T10:35:13;2.83;;;1.00;;
60016;SDS011;45869;52.698;6.210;2023-08-12T10:37:39;2.08;;;1.05;;
60016;SDS011;45869;52.698;6.210;2023-08-12T10:40:05;1.85;;;1.00;;
60016;SDS011;45869;52.698;6.210;2023-08-12T10:42:45;1.35;;;0.77;;
60016;SDS011;45869;52.698;6.210;2023-08-12T10:45:12;1.50;;;0.60;;
60016;SDS011;45869;52.698;6.210;2023-08-12T10:47:42;1.92;;;0.50;;
60016;SDS011;45869;52.698;6.210;2023-08-12T10:50:18;0.75;;;0.40;;
60016;SDS011;45869;52.698;6.210;2023-08-12T10:52:44;1.40;;;0.40;;
60016;SDS011;45869;52.698;6.210;2023-08-12T10:55:17;1.15;;;0.40;;
60016;SDS011;45869;52.698;6.210;2023-08-12T10:57:44;1.17;;;0.25;;
60016;SDS011;45869;52.698;6.210;2023-08-12T11:00:10;1.50;;;0.20;;
60016;SDS011;45869;52.698;6.210;2023-08-12T11:02:38;1.27;;;0.30;;
60016;SDS011;45869;52.698;6.210;2023-08-12T11:05:09;0.85;;;0.30;;
60016;SDS011;45869;52.698;6.210;2023-08-12T11:07:44;0.60;;;0.30;;
60016;SDS011;45869;52.698;6.210;2023-08-12T11:10:14;1.17;;;0.40;;
60016;SDS011;45869;52.698;6.210;2023-08-12T11:17:57;2.58;;;0.63;;
60016;SDS011;45869;52.698;6.210;2023-08-12T11:20:24;1.63;;;0.50;;
60016;SDS011;45869;52.698;6.210;2023-08-12T11:22:50;2.35;;;0.60;;
60016;SDS011;45869;52.698;6.210;2023-08-12T11:25:16;2.17;;;0.77;;
60016;SDS011;45869;52.698;6.210;2023-08-12T11:27:46;2.53;;;1.00;;
60016;SDS011;45869;52.698;6.210;2023-08-12T11:30:14;2.15;;;1.00;;
60016;SDS011;45869;52.698;6.210;2023-08-12T11:32:43;4.38;;;1.48;;
60016;SDS011;45869;52.698;6.210;2023-08-12T11:35:09;2.95;;;1.45;;
60016;SDS011;45869;52.698;6.210;2023-08-12T11:37:36;3.03;;;1.27;;
60016;SDS011;45869;52.698;6.210;2023-08-12T11:40:03;3.33;;;1.33;;
60016;SDS011;45869;52.698;6.210;2023-08-12T11:42:30;4.65;;;1.60;;
60016;SDS011;45869;52.698;6.210;2023-08-12T11:44:56;4.47;;;1.52;;
60016;SDS011;45869;52.698;6.210;2023-08-12T11:47:22;4.30;;;1.45;;
60016;SDS011;45869;52.698;6.210;2023-08-12T11:49:48;2.88;;;1.15;;
60016;SDS011;45869;52.698;6.210;2023-08-12T11:52:14;4.68;;;1.15;;
60016;SDS011;45869;52.698;6.210;2023-08-12T11:54:41;2.50;;;0.95;;
60016;SDS011;45869;52.698;6.210;2023-08-12T11:57:07;2.90;;;1.33;;
60016;SDS011;45869;52.698;6.210;2023-08-12T11:59:33;4.07;;;1.02;;
60016;SDS011;45869;52.698;6.210;2023-08-12T12:02:01;4.22;;;1.10;;
60016;SDS011;45869;52.698;6.210;2023-08-12T12:04:27;3.47;;;1.15;;
60016;SDS011;45869;52.698;6.210;2023-08-12T12:06:53;2.50;;;1.10;;
60016;SDS011;45869;52.698;6.210;2023-08-12T12:09:19;3.35;;;1.20;;
60016;SDS011;45869;52.698;6.210;2023-08-12T12:11:46;2.58;;;1.00;;
60016;SDS011;45869;52.698;6.210;2023-08-12T12:14:12;3.38;;;1.20;;
60016;SDS011;45869;52.698;6.210;2023-08-12T12:19:05;3.33;;;1.00;;
60016;SDS011;45869;52.698;6.210;2023-08-12T12:21:40;2.85;;;0.95;;
60016;SDS011;45869;52.698;6.210;2023-08-12T12:24:07;3.92;;;0.98;;
60016;SDS011;45869;52.698;6.210;2023-08-12T12:26:34;4.10;;;1.15;;
60016;SDS011;45869;52.698;6.210;2023-08-12T12:29:00;4.70;;;1.10;;
60016;SDS011;45869;52.698;6.210;2023-08-12T12:31:27;4.05;;;1.10;;
60016;SDS011;45869;52.698;6.210;2023-08-12T12:33:53;3.47;;;1.10;;
60016;SDS011;45869;52.698;6.210;2023-08-12T12:36:19;3.80;;;1.20;;
60016;SDS011;45869;52.698;6.210;2023-08-12T12:38:45;4.22;;;1.10;;
60016;SDS011;45869;52.698;6.210;2023-08-12T12:41:14;4.70;;;1.30;;
60016;SDS011;45869;52.698;6.210;2023-08-12T12:43:40;4.60;;;1.20;;
60016;SDS011;45869;52.698;6.210;2023-08-12T12:46:06;5.65;;;1.17;;
60016;SDS011;45869;52.698;6.210;2023-08-12T12:48:33;5.57;;;1.25;;
60016;SDS011;45869;52.698;6.210;2023-08-12T12:50:59;3.67;;;1.20;;
60016;SDS011;45869;52.698;6.210;2023-08-12T12:53:28;4.90;;;1.20;;
60016;SDS011;45869;52.698;6.210;2023-08-12T12:55:54;7.03;;;1.17;;
60016;SDS011;45869;52.698;6.210;2023-08-12T12:58:22;5.97;;;1.40;;
60016;SDS011;45869;52.698;6.210;2023-08-12T13:00:48;7.47;;;1.38;;
60016;SDS011;45869;52.698;6.210;2023-08-12T13:03:14;5.50;;;1.63;;
60016;SDS011;45869;52.698;6.210;2023-08-12T13:05:40;5.07;;;1.30;;
60016;SDS011;45869;52.698;6.210;2023-08-12T13:08:06;6.88;;;1.77;;
60016;SDS011;45869;52.698;6.210;2023-08-12T13:10:33;6.22;;;1.60;;
60016;SDS011;45869;52.698;6.210;2023-08-12T13:12:59;6.07;;;1.38;;
60016;SDS011;45869;52.698;6.210;2023-08-12T13:15:25;7.22;;;1.55;;
60016;SDS011;45869;52.698;6.210;2023-08-12T13:17:51;6.03;;;1.50;;
60016;SDS011;45869;52.698;6.210;2023-08-12T13:20:17;6.38;;;1.55;;
60016;SDS011;45869;52.698;6.210;2023-08-12T13:22:43;6.55;;;1.42;;
60016;SDS011;45869;52.698;6.210;2023-08-12T13:25:09;5.65;;;1.30;;
60016;SDS011;45869;52.698;6.210;2023-08-12T13:27:35;6.53;;;1.30;;
60016;SDS011;45869;52.698;6.210;2023-08-12T13:30:01;4.88;;;1.30;;
60016;SDS011;45869;52.698;6.210;2023-08-12T13:32:29;9.15;;;1.40;;
60016;SDS011;45869;52.698;6.210;2023-08-12T13:34:55;5.78;;;1.30;;
60016;SDS011;45869;52.698;6.210;2023-08-12T13:37:21;3.78;;;1.10;;
60016;SDS011;45869;52.698;6.210;2023-08-12T13:39:47;5.82;;;1.48;;
60016;SDS011;45869;52.698;6.210;2023-08-12T13:42:13;7.25;;;1.60;;
60016;SDS011;45869;52.698;6.210;2023-08-12T13:44:39;6.00;;;1.40;;
60016;SDS011;45869;52.698;6.210;2023-08-12T13:47:05;4.53;;;1.20;;
60016;SDS011;45869;52.698;6.210;2023-08-12T13:49:31;8.07;;;1.60;;
60016;SDS011;45869;52.698;6.210;2023-08-12T13:51:58;5.25;;;1.40;;
60016;SDS011;45869;52.698;6.210;2023-08-12T13:54:24;5.13;;;1.17;;
60016;SDS011;45869;52.698;6.210;2023-08-12T13:56:50;5.50;;;1.60;;
60016;SDS011;45869;52.698;6.210;2023-08-12T13:59:16;6.75;;;1.40;;
60016;SDS011;45869;52.698;6.210;2023-08-12T14:01:42;8.35;;;1.50;;
60016;SDS011;45869;52.698;6.210;2023-08-12T14:04:08;6.97;;;1.50;;
60016;SDS011;45869;52.698;6.210;2023-08-12T14:06:34;5.15;;;1.60;;
60016;SDS011;45869;52.698;6.210;2023-08-12T14:09:00;5.18;;;1.27;;
60016;SDS011;45869;52.698;6.210;2023-08-12T14:11:27;9.98;;;1.73;;
60016;SDS011;45869;52.698;6.210;2023-08-12T14:13:53;7.50;;;1.30;;
60016;SDS011;45869;52.698;6.210;2023-08-12T14:16:19;4.85;;;1.42;;
60016;SDS011;45869;52.698;6.210;2023-08-12T14:18:45;6.13;;;1.70;;
60016;SDS011;45869;52.698;6.210;2023-08-12T14:21:11;6.72;;;1.38;;
60016;SDS011;45869;52.698;6.210;2023-08-12T14:23:37;6.03;;;1.40;;
60016;SDS011;45869;52.698;6.210;2023-08-12T14:26:03;7.35;;;1.40;;
60016;SDS011;45869;52.698;6.210;2023-08-12T14:28:29;6.90;;;1.52;;
60016;SDS011;45869;52.698;6.210;2023-08-12T14:30:55;6.32;;;1.50;;
60016;SDS011;45869;52.698;6.210;2023-08-12T14:33:21;8.57;;;1.70;;
60016;SDS011;45869;52.698;6.210;2023-08-12T14:35:50;4.75;;;1.02;;
60016;SDS011;45869;52.698;6.210;2023-08-12T14:38:18;9.00;;;1.40;;
60016;SDS011;45869;52.698;6.210;2023-08-12T14:40:47;3.95;;;1.33;;
60016;SDS011;45869;52.698;6.210;2023-08-12T14:43:13;5.95;;;1.38;;
60016;SDS011;45869;52.698;6.210;2023-08-12T14:45:39;6.88;;;1.52;;
60016;SDS011;45869;52.698;6.210;2023-08-12T14:48:06;5.45;;;1.35;;